createdAt,value
2022-10-01T00:00:27.863Z,444.00
2022-10-01T00:01:23.773Z,440.00
2022-10-01T00:02:18.825Z,445.00
2022-10-01T00:03:14.078Z,447.00
2022-10-01T00:04:09.890Z,446.00
2022-10-01T00:05:05.079Z,446.00
2022-10-01T00:06:00.395Z,453.00
2022-10-01T00:06:56.753Z,453.00
2022-10-01T00:07:51.945Z,449.00
2022-10-01T00:08:47.710Z,453.00
2022-10-01T00:09:42.858Z,450.00
2022-10-01T00:10:38.261Z,456.00
2022-10-01T00:11:34.116Z,458.00
2022-10-01T00:12:29.092Z,450.00
2022-10-01T00:13:24.832Z,452.00
2022-10-01T00:14:20.013Z,454.00
2022-10-01T00:15:15.332Z,455.00
2022-10-01T00:16:11.050Z,456.00
2022-10-01T00:17:06.226Z,456.00
2022-10-01T00:18:01.407Z,453.00
2022-10-01T00:18:57.693Z,454.00
2022-10-01T00:19:52.901Z,451.00
2022-10-01T00:20:48.622Z,458.00
2022-10-01T00:21:43.804Z,452.00
2022-10-01T00:22:39.015Z,447.00
2022-10-01T00:23:34.873Z,447.00
2022-10-01T00:24:30.088Z,442.00
2022-10-01T00:25:25.832Z,437.00
2022-10-01T00:26:21.033Z,443.00
2022-10-01T00:27:16.370Z,447.00
2022-10-01T00:28:12.180Z,449.00
2022-10-01T00:29:07.433Z,447.00
2022-10-01T00:30:02.576Z,450.00
2022-10-01T00:30:59.091Z,469.00
2022-10-01T00:31:54.363Z,453.00
2022-10-01T00:32:50.093Z,456.00
2022-10-01T00:33:45.278Z,459.00
2022-10-01T00:34:40.498Z,450.00
2022-10-01T00:35:36.236Z,449.00
2022-10-01T00:36:31.575Z,451.00
2022-10-01T00:37:27.454Z,446.00
2022-10-01T00:38:22.508Z,450.00
2022-10-01T00:39:17.687Z,453.00
2022-10-01T00:40:13.437Z,453.00
2022-10-01T00:41:08.677Z,449.00
2022-10-01T00:42:03.958Z,451.00
2022-10-01T00:42:58.999Z,453.00
2022-10-01T00:43:55.658Z,456.00
2022-10-01T00:44:50.953Z,458.00
2022-10-01T00:45:46.245Z,451.00
2022-10-01T00:46:42.033Z,459.00
2022-10-01T00:47:37.230Z,459.00
2022-10-01T00:48:32.386Z,456.00
2022-10-01T00:49:28.812Z,452.00
2022-10-01T00:50:24.005Z,447.00
2022-10-01T00:51:19.737Z,449.00
2022-10-01T00:52:14.939Z,443.00
2022-10-01T00:53:10.166Z,449.00
2022-10-01T00:54:05.957Z,448.00
2022-10-01T00:55:01.158Z,453.00
2022-10-01T00:55:57.065Z,453.00
2022-10-01T00:56:52.111Z,452.00
2022-10-01T00:57:47.303Z,454.00
2022-10-01T00:58:43.079Z,455.00
2022-10-01T00:59:38.254Z,447.00
2022-10-01T01:00:33.480Z,440.00
2022-10-01T01:01:28.835Z,438.00
2022-10-01T01:02:23.981Z,436.00
2022-10-01T01:03:19.305Z,428.00
2022-10-01T01:04:14.501Z,420.00
2022-10-01T01:05:09.664Z,428.00
2022-10-01T01:06:05.421Z,421.00
2022-10-01T01:07:00.578Z,424.00
2022-10-01T01:07:55.921Z,421.00
2022-10-01T01:08:50.965Z,419.00
2022-10-01T01:09:46.030Z,423.00
2022-10-01T01:10:41.088Z,423.00
2022-10-01T01:11:36.464Z,420.00
2022-10-01T01:12:31.162Z,420.00
2022-10-01T01:13:26.233Z,424.00
2022-10-01T01:14:21.391Z,419.00
2022-10-01T01:15:16.624Z,424.00
2022-10-01T01:16:11.798Z,434.00
2022-10-01T01:17:06.817Z,435.00
2022-10-01T01:18:01.847Z,428.00
2022-10-01T01:18:57.071Z,429.00
2022-10-01T01:19:51.985Z,430.00
2022-10-01T01:20:47.179Z,438.00
2022-10-01T01:21:42.240Z,421.00
2022-10-01T01:22:37.285Z,428.00
2022-10-01T01:23:32.382Z,437.00
2022-10-01T01:24:27.327Z,431.00
2022-10-01T01:25:22.339Z,435.00
2022-10-01T01:26:17.373Z,435.00
2022-10-01T01:27:12.431Z,432.00
2022-10-01T01:28:07.540Z,442.00
2022-10-01T01:29:02.616Z,433.00
2022-10-01T01:29:57.673Z,433.00
2022-10-01T01:30:52.732Z,436.00
2022-10-01T01:31:47.929Z,430.00
2022-10-01T01:32:43.079Z,435.00
2022-10-01T01:33:38.257Z,433.00
2022-10-01T01:34:33.511Z,433.00
2022-10-01T01:35:28.658Z,428.00
2022-10-01T01:36:23.805Z,431.00
2022-10-01T01:37:19.008Z,428.00
2022-10-01T01:38:14.314Z,431.00
2022-10-01T01:39:10.324Z,433.00
2022-10-01T01:40:05.488Z,435.00
2022-10-01T01:41:00.565Z,438.00
2022-10-01T01:41:55.746Z,433.00
2022-10-01T01:42:50.901Z,435.00
2022-10-01T01:43:46.066Z,439.00
2022-10-01T01:44:41.295Z,431.00
2022-10-01T01:45:36.517Z,437.00
2022-10-01T01:46:31.825Z,433.00
2022-10-01T01:47:26.874Z,434.00
2022-10-01T01:48:22.030Z,429.00
2022-10-01T01:49:17.203Z,435.00
2022-10-01T01:50:12.395Z,440.00
2022-10-01T01:51:07.718Z,434.00
2022-10-01T01:52:02.746Z,433.00
2022-10-01T01:52:57.895Z,440.00
2022-10-01T01:53:53.100Z,442.00
2022-10-01T01:54:48.439Z,436.00
2022-10-01T01:55:43.592Z,448.00
2022-10-01T01:56:38.797Z,431.00
2022-10-01T01:57:33.974Z,434.00
2022-10-01T01:58:29.163Z,438.00
2022-10-01T01:59:24.381Z,438.00
2022-10-01T02:00:19.527Z,438.00
2022-10-01T02:01:14.803Z,438.00
2022-10-01T02:02:10.077Z,436.00
2022-10-01T02:03:05.307Z,436.00
2022-10-01T02:04:00.398Z,440.00
2022-10-01T02:04:55.582Z,441.00
2022-10-01T02:05:50.750Z,444.00
2022-10-01T02:06:45.776Z,444.00
2022-10-01T02:07:40.786Z,438.00
2022-10-01T02:08:35.824Z,449.00
2022-10-01T02:09:31.013Z,454.00
2022-10-01T02:10:26.335Z,449.00
2022-10-01T02:11:21.379Z,442.00
2022-10-01T02:12:16.463Z,438.00
2022-10-01T02:13:15.605Z,442.00
2022-10-01T02:14:10.651Z,451.00
2022-10-01T02:15:05.811Z,439.00
2022-10-01T02:16:01.026Z,467.00
2022-10-01T02:16:56.343Z,457.00
2022-10-01T02:17:51.501Z,436.00
2022-10-01T02:18:46.643Z,448.00
2022-10-01T02:19:41.819Z,442.00
2022-10-01T02:20:36.999Z,437.00
2022-10-01T02:21:32.421Z,443.00
2022-10-01T02:22:27.318Z,438.00
2022-10-01T02:23:22.767Z,439.00
2022-10-01T02:24:17.827Z,441.00
2022-10-01T02:25:12.980Z,433.00
2022-10-01T02:26:08.165Z,438.00
2022-10-01T02:27:03.464Z,431.00
2022-10-01T02:27:58.662Z,431.00
2022-10-01T02:28:53.844Z,433.00
2022-10-01T02:29:49.049Z,430.00
2022-10-01T02:30:44.285Z,432.00
2022-10-01T02:31:39.683Z,432.00
2022-10-01T02:32:34.686Z,434.00
2022-10-01T02:33:29.868Z,433.00
2022-10-01T02:34:25.043Z,425.00
2022-10-01T02:35:20.332Z,424.00
2022-10-01T02:36:15.511Z,427.00
2022-10-01T02:37:10.545Z,430.00
2022-10-01T02:38:05.762Z,426.00
2022-10-01T02:39:00.931Z,427.00
2022-10-01T02:39:56.244Z,424.00
2022-10-01T02:40:51.305Z,429.00
2022-10-01T02:41:46.491Z,432.00
2022-10-01T02:42:41.699Z,431.00
2022-10-01T02:43:41.973Z,429.00
2022-10-01T02:44:33.318Z,427.00
2022-10-01T02:45:27.438Z,427.00
2022-10-01T02:46:22.617Z,428.00
2022-10-01T02:47:17.827Z,427.00
2022-10-01T02:48:12.969Z,424.00
2022-10-01T02:49:08.136Z,421.00
2022-10-01T02:50:03.351Z,431.00
2022-10-01T02:50:58.521Z,435.00
2022-10-01T02:51:53.827Z,430.00
2022-10-01T02:52:48.863Z,430.00
2022-10-01T02:53:44.121Z,432.00
2022-10-01T02:54:39.407Z,427.00
2022-10-01T02:55:34.409Z,433.00
2022-10-01T02:56:29.825Z,433.00
2022-10-01T02:57:24.898Z,434.00
2022-10-01T02:58:20.026Z,436.00
2022-10-01T02:59:15.192Z,428.00
2022-10-01T03:00:10.363Z,430.00
2022-10-01T03:01:05.702Z,425.00
2022-10-01T03:02:00.882Z,423.00
2022-10-01T03:02:56.068Z,433.00
2022-10-01T03:03:51.204Z,429.00
2022-10-01T03:04:46.394Z,431.00
2022-10-01T03:05:41.554Z,426.00
2022-10-01T03:06:36.788Z,425.00
2022-10-01T03:07:31.977Z,432.00
2022-10-01T03:08:27.248Z,432.00
2022-10-01T03:09:22.472Z,431.00
2022-10-01T03:10:17.765Z,434.00
2022-10-01T03:11:12.839Z,434.00
2022-10-01T03:12:07.887Z,427.00
2022-10-01T03:13:02.957Z,430.00
2022-10-01T03:13:57.997Z,435.00
2022-10-01T03:14:53.196Z,430.00
2022-10-01T03:15:48.308Z,431.00
2022-10-01T03:16:43.252Z,427.00
2022-10-01T03:17:38.266Z,427.00
2022-10-01T03:18:33.337Z,427.00
2022-10-01T03:19:28.404Z,428.00
2022-10-01T03:20:23.454Z,428.00
2022-10-01T03:21:18.507Z,435.00
2022-10-01T03:22:13.541Z,431.00
2022-10-01T03:23:08.614Z,430.00
2022-10-01T03:24:03.671Z,433.00
2022-10-01T03:24:58.681Z,431.00
2022-10-01T03:25:53.743Z,431.00
2022-10-01T03:26:48.934Z,430.00
2022-10-01T03:27:44.178Z,428.00
2022-10-01T03:28:39.369Z,431.00
2022-10-01T03:29:34.547Z,435.00
2022-10-01T03:30:29.824Z,429.00
2022-10-01T03:31:25.094Z,431.00
2022-10-01T03:32:20.312Z,432.00
2022-10-01T03:33:15.502Z,431.00
2022-10-01T03:34:10.699Z,431.00
2022-10-01T03:35:06.010Z,434.00
2022-10-01T03:36:01.057Z,430.00
2022-10-01T03:36:57.626Z,436.00
2022-10-01T03:37:52.831Z,429.00
2022-10-01T03:38:48.688Z,434.00
2022-10-01T03:39:43.827Z,427.00
2022-10-01T03:40:39.135Z,432.00
2022-10-01T03:41:35.187Z,434.00
2022-10-01T03:42:30.078Z,439.00
2022-10-01T03:43:25.957Z,430.00
2022-10-01T03:44:21.244Z,433.00
2022-10-01T03:45:16.455Z,426.00
2022-10-01T03:46:12.266Z,432.00
2022-10-01T03:47:07.468Z,434.00
2022-10-01T03:48:02.612Z,430.00
2022-10-01T03:48:59.037Z,433.00
2022-10-01T03:49:54.219Z,433.00
2022-10-01T03:50:49.961Z,432.00
2022-10-01T03:51:45.313Z,433.00
2022-10-01T03:52:40.483Z,431.00
2022-10-01T03:53:36.240Z,432.00
2022-10-01T03:54:31.425Z,431.00
2022-10-01T03:55:27.394Z,432.00
2022-10-01T03:56:22.456Z,436.00
2022-10-01T03:57:17.707Z,435.00
2022-10-01T03:58:13.461Z,432.00
2022-10-01T03:59:08.637Z,439.00
2022-10-01T04:00:04.116Z,436.00
2022-10-01T04:01:00.146Z,432.00
2022-10-01T04:01:55.382Z,434.00
2022-10-01T04:02:51.255Z,434.00
2022-10-01T04:03:46.401Z,426.00
2022-10-01T04:04:41.859Z,433.00
2022-10-01T04:05:37.503Z,432.00
2022-10-01T04:06:32.685Z,433.00
2022-10-01T04:07:28.570Z,427.00
2022-10-01T04:08:24.464Z,431.00
2022-10-01T04:09:19.213Z,427.00
2022-10-01T04:10:14.861Z,429.00
2022-10-01T04:11:10.035Z,426.00
2022-10-01T04:12:05.248Z,423.00
2022-10-01T04:13:01.652Z,428.00
2022-10-01T04:13:56.868Z,429.00
2022-10-01T04:14:52.729Z,433.00
2022-10-01T04:15:47.985Z,430.00
2022-10-01T04:16:43.033Z,431.00
2022-10-01T04:17:41.588Z,432.00
2022-10-01T04:18:35.015Z,429.00
2022-10-01T04:19:29.972Z,433.00
2022-10-01T04:20:24.989Z,427.00
2022-10-01T04:21:20.345Z,429.00
2022-10-01T04:22:16.065Z,430.00
2022-10-01T04:23:11.261Z,429.00
2022-10-01T04:24:06.573Z,432.00
2022-10-01T04:25:02.762Z,433.00
2022-10-01T04:25:57.940Z,434.00
2022-10-01T04:26:53.686Z,433.00
2022-10-01T04:27:49.002Z,433.00
2022-10-01T04:28:44.157Z,432.00
2022-10-01T04:29:40.477Z,426.00
2022-10-01T04:30:35.155Z,429.00
2022-10-01T04:31:31.205Z,433.00
2022-10-01T04:32:26.055Z,432.00
2022-10-01T04:33:21.236Z,430.00
2022-10-01T04:34:17.278Z,430.00
2022-10-01T04:35:12.475Z,431.00
2022-10-01T04:36:07.802Z,430.00
2022-10-01T04:37:02.832Z,423.00
2022-10-01T04:37:58.156Z,430.00
2022-10-01T04:38:57.886Z,429.00
2022-10-01T04:39:50.020Z,428.00
2022-10-01T04:40:44.836Z,431.00
2022-10-01T04:41:39.982Z,432.00
2022-10-01T04:42:35.321Z,424.00
2022-10-01T04:43:30.929Z,434.00
2022-10-01T04:44:26.320Z,435.00
2022-10-01T04:45:21.511Z,427.00
2022-10-01T04:46:18.081Z,423.00
2022-10-01T04:47:13.215Z,425.00
2022-10-01T04:48:08.940Z,432.00
2022-10-01T04:49:04.221Z,430.00
2022-10-01T04:49:59.334Z,430.00
2022-10-01T04:50:55.021Z,430.00
2022-10-01T04:51:50.219Z,429.00
2022-10-01T04:52:45.397Z,430.00
2022-10-01T04:53:40.585Z,421.00
2022-10-01T04:54:35.832Z,421.00
2022-10-01T04:55:30.882Z,425.00
2022-10-01T04:56:25.940Z,422.00
2022-10-01T04:57:21.007Z,423.00
2022-10-01T04:58:15.998Z,419.00
2022-10-01T04:59:11.023Z,424.00
2022-10-01T05:00:06.045Z,421.00
2022-10-01T05:01:02.278Z,423.00
2022-10-01T05:01:56.239Z,418.00
2022-10-01T05:02:51.152Z,421.00
2022-10-01T05:03:46.384Z,416.00
2022-10-01T05:04:41.461Z,414.00
2022-10-01T05:05:36.645Z,425.00
2022-10-01T05:06:31.619Z,425.00
2022-10-01T05:07:26.858Z,421.00
2022-10-01T05:08:21.875Z,421.00
2022-10-01T05:09:16.960Z,420.00
2022-10-01T05:10:12.099Z,422.00
2022-10-01T05:11:07.203Z,418.00
2022-10-01T05:12:02.683Z,418.00
2022-10-01T05:12:57.890Z,416.00
2022-10-01T05:13:53.143Z,420.00
2022-10-01T05:14:48.242Z,419.00
2022-10-01T05:15:43.361Z,422.00
2022-10-01T05:16:38.511Z,421.00
2022-10-01T05:17:33.531Z,422.00
2022-10-01T05:18:28.655Z,419.00
2022-10-01T05:19:27.884Z,426.00
2022-10-01T05:20:18.783Z,426.00
2022-10-01T05:21:13.793Z,426.00
2022-10-01T05:22:08.795Z,425.00
2022-10-01T05:23:03.981Z,424.00
2022-10-01T05:23:59.142Z,422.00
2022-10-01T05:24:55.173Z,423.00
2022-10-01T05:25:50.503Z,422.00
2022-10-01T05:26:45.857Z,418.00
2022-10-01T05:27:41.185Z,422.00
2022-10-01T05:28:36.585Z,429.00
2022-10-01T05:29:31.753Z,419.00
2022-10-01T05:30:27.110Z,424.00
2022-10-01T05:31:22.494Z,419.00
2022-10-01T05:32:18.155Z,418.00
2022-10-01T05:33:13.386Z,422.00
2022-10-01T05:34:08.752Z,423.00
2022-10-01T05:35:04.123Z,417.00
2022-10-01T05:35:59.563Z,418.00
2022-10-01T05:36:54.757Z,420.00
2022-10-01T05:37:50.218Z,415.00
2022-10-01T05:38:45.426Z,417.00
2022-10-01T05:39:41.055Z,423.00
2022-10-01T05:40:36.131Z,419.00
2022-10-01T05:41:31.643Z,420.00
2022-10-01T05:42:26.716Z,416.00
2022-10-01T05:43:22.047Z,424.00
2022-10-01T05:44:17.516Z,419.00
2022-10-01T05:45:12.776Z,419.00
2022-10-01T05:46:08.160Z,416.00
2022-10-01T05:47:03.632Z,425.00
2022-10-01T05:47:58.885Z,419.00
2022-10-01T05:48:54.203Z,421.00
2022-10-01T05:49:49.556Z,415.00
2022-10-01T05:50:44.892Z,422.00
2022-10-01T05:51:40.218Z,423.00
2022-10-01T05:52:35.541Z,424.00
2022-10-01T05:53:30.927Z,421.00
2022-10-01T05:54:26.299Z,425.00
2022-10-01T05:55:21.614Z,430.00
2022-10-01T05:56:17.107Z,423.00
2022-10-01T05:57:12.333Z,426.00
2022-10-01T05:58:07.764Z,422.00
2022-10-01T05:59:03.157Z,420.00
2022-10-01T05:59:59.901Z,421.00
2022-10-01T06:00:55.263Z,420.00
2022-10-01T06:01:50.752Z,421.00
2022-10-01T06:02:46.222Z,420.00
2022-10-01T06:03:41.616Z,422.00
2022-10-01T06:04:41.072Z,420.00
2022-10-01T06:05:32.905Z,420.00
2022-10-01T06:06:28.330Z,426.00
2022-10-01T06:07:23.743Z,418.00
2022-10-01T06:08:19.136Z,423.00
2022-10-01T06:09:14.540Z,421.00
2022-10-01T06:10:09.943Z,419.00
2022-10-01T06:11:05.337Z,415.00
2022-10-01T06:12:00.759Z,421.00
2022-10-01T06:13:00.224Z,420.00
2022-10-01T06:13:55.627Z,418.00
2022-10-01T06:14:51.042Z,428.00
2022-10-01T06:15:46.559Z,424.00
2022-10-01T06:16:41.855Z,423.00
2022-10-01T06:17:37.196Z,418.00
2022-10-01T06:18:32.633Z,424.00
2022-10-01T06:19:28.019Z,415.00
2022-10-01T06:20:23.442Z,420.00
2022-10-01T06:21:18.828Z,416.00
2022-10-01T06:22:14.362Z,417.00
2022-10-01T06:23:09.675Z,417.00
2022-10-01T06:24:05.066Z,418.00
2022-10-01T06:25:00.590Z,413.00
2022-10-01T06:25:55.831Z,414.00
2022-10-01T06:26:50.913Z,413.00
2022-10-01T06:27:45.975Z,412.00
2022-10-01T06:28:41.143Z,419.00
2022-10-01T06:29:35.990Z,413.00
2022-10-01T06:30:31.107Z,412.00
2022-10-01T06:31:26.234Z,422.00
2022-10-01T06:32:21.236Z,419.00
2022-10-01T06:33:16.265Z,420.00
2022-10-01T06:34:11.261Z,417.00
2022-10-01T06:35:06.296Z,415.00
2022-10-01T06:36:02.874Z,412.00
2022-10-01T06:36:58.004Z,412.00
2022-10-01T06:37:53.045Z,415.00
2022-10-01T06:38:48.033Z,414.00
2022-10-01T06:39:44.106Z,413.00
2022-10-01T06:40:39.546Z,413.00
2022-10-01T06:41:35.290Z,412.00
2022-10-01T06:42:30.384Z,410.00
2022-10-01T06:43:26.582Z,418.00
2022-10-01T06:44:21.985Z,415.00
2022-10-01T06:45:17.557Z,416.00
2022-10-01T06:46:12.883Z,414.00
2022-10-01T06:47:08.240Z,407.00
2022-10-01T06:48:03.814Z,414.00
2022-10-01T06:48:59.050Z,414.00
2022-10-01T06:49:54.168Z,411.00
2022-10-01T06:50:49.172Z,416.00
2022-10-01T06:51:44.186Z,430.00
2022-10-01T06:52:39.181Z,418.00
2022-10-01T06:53:34.295Z,416.00
2022-10-01T06:54:29.399Z,415.00
2022-10-01T06:55:24.448Z,421.00
2022-10-01T06:56:19.547Z,418.00
2022-10-01T06:57:14.590Z,415.00
2022-10-01T06:58:09.574Z,419.00
2022-10-01T06:59:06.233Z,419.00
2022-10-01T07:00:01.342Z,415.00
2022-10-01T07:00:56.492Z,418.00
2022-10-01T07:01:56.056Z,422.00
2022-10-01T07:02:48.498Z,426.00
2022-10-01T07:03:42.913Z,426.00
2022-10-01T07:04:38.413Z,422.00
2022-10-01T07:05:34.044Z,422.00
2022-10-01T07:06:29.345Z,418.00
2022-10-01T07:07:29.374Z,415.00
2022-10-01T07:08:21.245Z,413.00
2022-10-01T07:09:15.739Z,417.00
2022-10-01T07:10:11.200Z,419.00
2022-10-01T07:11:06.639Z,417.00
2022-10-01T07:12:02.122Z,416.00
2022-10-01T07:12:57.600Z,417.00
2022-10-01T07:13:54.689Z,416.00
2022-10-01T07:14:48.499Z,419.00
2022-10-01T07:15:43.517Z,418.00
2022-10-01T07:16:38.645Z,408.00
2022-10-01T07:17:33.703Z,418.00
2022-10-01T07:18:28.775Z,420.00
2022-10-01T07:19:23.947Z,414.00
2022-10-01T07:20:19.106Z,414.00
2022-10-01T07:21:14.014Z,421.00
2022-10-01T07:22:09.130Z,412.00
2022-10-01T07:23:04.304Z,423.00
2022-10-01T07:23:59.354Z,412.00
2022-10-01T07:24:54.425Z,418.00
2022-10-01T07:25:49.564Z,419.00
2022-10-01T07:26:44.601Z,412.00
2022-10-01T07:27:39.664Z,410.00
2022-10-01T07:28:35.105Z,418.00
2022-10-01T07:29:30.588Z,415.00
2022-10-01T07:30:26.089Z,422.00
2022-10-01T07:31:21.696Z,416.00
2022-10-01T07:32:17.100Z,417.00
2022-10-01T07:33:12.544Z,412.00
2022-10-01T07:34:08.114Z,409.00
2022-10-01T07:35:03.252Z,410.00
2022-10-01T07:35:58.261Z,410.00
2022-10-01T07:36:53.281Z,413.00
2022-10-01T07:37:49.723Z,410.00
2022-10-01T07:38:44.761Z,413.00
2022-10-01T07:39:39.806Z,403.00
2022-10-01T07:40:34.837Z,408.00
2022-10-01T07:41:29.995Z,401.00
2022-10-01T07:42:24.996Z,399.00
2022-10-01T07:43:20.056Z,407.00
2022-10-01T07:44:15.136Z,411.00
2022-10-01T07:45:10.328Z,404.00
2022-10-01T07:46:05.481Z,405.00
2022-10-01T07:47:00.404Z,414.00
2022-10-01T07:47:56.641Z,409.00
2022-10-01T07:48:51.994Z,406.00
2022-10-01T07:49:47.730Z,418.00
2022-10-01T07:50:42.896Z,408.00
2022-10-01T07:51:38.317Z,410.00
2022-10-01T07:52:33.796Z,409.00
2022-10-01T07:53:29.278Z,410.00
2022-10-01T07:54:24.856Z,404.00
2022-10-01T07:55:20.343Z,404.00
2022-10-01T07:56:15.791Z,404.00
2022-10-01T07:57:11.285Z,415.00
2022-10-01T07:58:06.726Z,406.00
2022-10-01T07:59:02.364Z,405.00
2022-10-01T07:59:57.952Z,407.00
2022-10-01T08:00:53.289Z,410.00
2022-10-01T08:01:48.884Z,408.00
2022-10-01T08:02:44.364Z,404.00
2022-10-01T08:03:39.745Z,406.00
2022-10-01T08:04:35.259Z,399.00
2022-10-01T08:05:30.673Z,400.00
2022-10-01T08:06:26.168Z,404.00
2022-10-01T08:07:21.642Z,403.00
2022-10-01T08:08:17.114Z,402.00
2022-10-01T08:09:12.717Z,403.00
2022-10-01T08:10:09.047Z,404.00
2022-10-01T08:11:04.396Z,402.00
2022-10-01T08:11:59.929Z,409.00
2022-10-01T08:12:55.596Z,406.00
2022-10-01T08:13:53.227Z,402.00
2022-10-01T08:14:48.597Z,398.00
2022-10-01T08:15:43.885Z,398.00
2022-10-01T08:16:39.509Z,403.00
2022-10-01T08:17:34.919Z,404.00
2022-10-01T08:18:30.205Z,400.00
2022-10-01T08:19:25.673Z,406.00
2022-10-01T08:20:21.130Z,407.00
2022-10-01T08:21:16.582Z,413.00
2022-10-01T08:22:12.053Z,404.00
2022-10-01T08:23:07.698Z,407.00
2022-10-01T08:24:03.033Z,404.00
2022-10-01T08:24:58.520Z,405.00
2022-10-01T08:25:53.991Z,400.00
2022-10-01T08:26:49.392Z,403.00
2022-10-01T08:27:44.486Z,403.00
2022-10-01T08:28:39.533Z,404.00
2022-10-01T08:29:34.717Z,405.00
2022-10-01T08:30:29.819Z,401.00
2022-10-01T08:31:24.872Z,405.00
2022-10-01T08:32:19.896Z,405.00
2022-10-01T08:33:14.893Z,399.00
2022-10-01T08:34:10.085Z,407.00
2022-10-01T08:35:05.191Z,401.00
2022-10-01T08:36:00.239Z,407.00
2022-10-01T08:36:56.938Z,402.00
2022-10-01T08:37:51.963Z,403.00
2022-10-01T08:38:47.092Z,400.00
2022-10-01T08:39:42.166Z,404.00
2022-10-01T08:40:38.086Z,407.00
2022-10-01T08:41:33.325Z,402.00
2022-10-01T08:42:28.776Z,398.00
2022-10-01T08:43:24.167Z,401.00
2022-10-01T08:44:19.764Z,402.00
2022-10-01T08:45:15.136Z,395.00
2022-10-01T08:46:10.644Z,418.00
2022-10-01T08:47:05.934Z,400.00
2022-10-01T08:48:01.928Z,401.00
2022-10-01T08:48:57.581Z,404.00
2022-10-01T08:49:52.514Z,400.00
2022-10-01T08:50:47.785Z,400.00
2022-10-01T08:51:43.169Z,396.00
2022-10-01T08:52:38.586Z,405.00
2022-10-01T08:53:33.662Z,398.00
2022-10-01T08:54:28.811Z,402.00
2022-10-01T08:55:23.920Z,406.00
2022-10-01T08:56:18.970Z,405.00
2022-10-01T08:57:14.086Z,402.00
2022-10-01T08:58:09.202Z,402.00
2022-10-01T08:59:04.275Z,399.00
2022-10-01T09:00:01.689Z,393.00
2022-10-01T09:00:56.797Z,402.00
2022-10-01T09:01:51.745Z,399.00
2022-10-01T09:02:46.778Z,412.00
2022-10-01T09:03:41.830Z,406.00
2022-10-01T09:04:36.998Z,395.00
2022-10-01T09:05:32.015Z,399.00
2022-10-01T09:06:27.065Z,397.00
2022-10-01T09:07:22.094Z,393.00
2022-10-01T09:08:17.181Z,401.00
2022-10-01T09:09:12.184Z,398.00
2022-10-01T09:10:08.424Z,404.00
2022-10-01T09:11:03.856Z,397.00
2022-10-01T09:11:59.400Z,389.00
2022-10-01T09:12:54.662Z,398.00
2022-10-01T09:13:50.638Z,395.00
2022-10-01T09:14:45.771Z,397.00
2022-10-01T09:15:41.177Z,403.00
2022-10-01T09:16:36.586Z,402.00
2022-10-01T09:17:31.919Z,398.00
2022-10-01T09:18:27.322Z,401.00
2022-10-01T09:19:22.840Z,403.00
2022-10-01T09:20:18.154Z,395.00
2022-10-01T09:21:13.627Z,395.00
2022-10-01T09:22:09.011Z,402.00
2022-10-01T09:23:04.417Z,393.00
2022-10-01T09:23:59.675Z,400.00
2022-10-01T09:24:55.098Z,393.00
2022-10-01T09:25:50.454Z,393.00
2022-10-01T09:26:45.836Z,404.00
2022-10-01T09:27:41.210Z,391.00
2022-10-01T09:28:36.606Z,396.00
2022-10-01T09:29:32.007Z,396.00
2022-10-01T09:30:27.564Z,402.00
2022-10-01T09:31:22.884Z,398.00
2022-10-01T09:32:18.265Z,404.00
2022-10-01T09:33:13.513Z,407.00
2022-10-01T09:34:08.993Z,399.00
2022-10-01T09:35:04.769Z,402.00
2022-10-01T09:35:59.923Z,401.00
2022-10-01T09:36:55.234Z,404.00
2022-10-01T09:37:50.651Z,397.00
2022-10-01T09:38:50.186Z,407.00
2022-10-01T09:39:45.531Z,397.00
2022-10-01T09:40:44.615Z,403.00
2022-10-01T09:41:39.932Z,394.00
2022-10-01T09:42:35.277Z,405.00
2022-10-01T09:43:30.827Z,397.00
2022-10-01T09:44:26.191Z,402.00
2022-10-01T09:45:25.326Z,400.00
2022-10-01T09:46:20.856Z,414.00
2022-10-01T09:47:16.126Z,405.00
2022-10-01T09:48:11.525Z,412.00
2022-10-01T09:49:07.149Z,445.00
2022-10-01T09:50:02.615Z,407.00
2022-10-01T09:50:57.786Z,400.00
2022-10-01T09:51:53.272Z,398.00
2022-10-01T09:52:48.629Z,391.00
2022-10-01T09:53:43.889Z,393.00
2022-10-01T09:54:39.295Z,391.00
2022-10-01T09:55:34.815Z,399.00
2022-10-01T09:56:30.200Z,397.00
2022-10-01T09:57:25.461Z,403.00
2022-10-01T09:58:20.833Z,399.00
2022-10-01T09:59:15.917Z,395.00
2022-10-01T10:00:10.946Z,393.00
2022-10-01T10:01:05.917Z,394.00
2022-10-01T10:02:01.144Z,396.00
2022-10-01T10:02:56.412Z,393.00
2022-10-01T10:03:51.231Z,403.00
2022-10-01T10:04:46.324Z,393.00
2022-10-01T10:05:41.443Z,399.00
2022-10-01T10:06:37.015Z,398.00
2022-10-01T10:07:31.651Z,396.00
2022-10-01T10:08:26.771Z,396.00
2022-10-01T10:09:21.840Z,395.00
2022-10-01T10:10:16.920Z,399.00
2022-10-01T10:11:11.892Z,403.00
2022-10-01T10:12:06.978Z,398.00
2022-10-01T10:13:02.028Z,403.00
2022-10-01T10:13:56.996Z,400.00
2022-10-01T10:14:52.083Z,400.00
2022-10-01T10:15:47.204Z,404.00
2022-10-01T10:16:42.314Z,396.00
2022-10-01T10:17:37.291Z,394.00
2022-10-01T10:18:32.431Z,400.00
2022-10-01T10:19:27.360Z,401.00
2022-10-01T10:20:22.444Z,404.00
2022-10-01T10:21:17.561Z,394.00
2022-10-01T10:22:12.538Z,398.00
2022-10-01T10:23:07.805Z,395.00
2022-10-01T10:24:02.962Z,403.00
2022-10-01T10:24:57.949Z,400.00
2022-10-01T10:25:53.201Z,402.00
2022-10-01T10:26:48.157Z,396.00
2022-10-01T10:27:43.012Z,400.00
2022-10-01T10:28:40.331Z,390.00
2022-10-01T10:29:33.437Z,399.00
2022-10-01T10:30:28.682Z,397.00
2022-10-01T10:31:24.232Z,399.00
2022-10-01T10:32:19.554Z,398.00
2022-10-01T10:33:14.790Z,397.00
2022-10-01T10:34:10.194Z,397.00
2022-10-01T10:35:05.677Z,405.00
2022-10-01T10:36:00.974Z,402.00
2022-10-01T10:36:56.628Z,400.00
2022-10-01T10:37:51.720Z,400.00
2022-10-01T10:38:47.050Z,397.00
2022-10-01T10:39:42.413Z,392.00
2022-10-01T10:40:37.822Z,395.00
2022-10-01T10:41:33.692Z,395.00
2022-10-01T10:42:28.563Z,400.00
2022-10-01T10:43:23.978Z,393.00
2022-10-01T10:44:19.521Z,393.00
2022-10-01T10:45:14.738Z,391.00
2022-10-01T10:46:10.310Z,389.00
2022-10-01T10:47:05.624Z,396.00
2022-10-01T10:48:01.122Z,397.00
2022-10-01T10:48:56.552Z,398.00
2022-10-01T10:49:51.841Z,393.00
2022-10-01T10:50:47.144Z,392.00
2022-10-01T10:51:42.262Z,395.00
2022-10-01T10:52:37.327Z,402.00
2022-10-01T10:53:32.439Z,391.00
2022-10-01T10:54:31.165Z,389.00
2022-10-01T10:55:26.526Z,397.00
2022-10-01T10:56:21.779Z,396.00
2022-10-01T10:57:17.128Z,402.00
2022-10-01T10:58:12.516Z,391.00
2022-10-01T10:59:07.903Z,395.00
2022-10-01T11:00:04.020Z,394.00
2022-10-01T11:00:58.766Z,397.00
2022-10-01T11:01:54.225Z,398.00
2022-10-01T11:02:49.217Z,401.00
2022-10-01T11:03:44.658Z,395.00
2022-10-01T11:04:40.059Z,394.00
2022-10-01T11:05:35.287Z,394.00
2022-10-01T11:06:30.831Z,392.00
2022-10-01T11:07:26.058Z,398.00
2022-10-01T11:08:21.275Z,400.00
2022-10-01T11:09:16.890Z,398.00
2022-10-01T11:10:12.384Z,397.00
2022-10-01T11:11:07.476Z,400.00
2022-10-01T11:12:02.838Z,390.00
2022-10-01T11:12:58.034Z,392.00
2022-10-01T11:13:53.025Z,400.00
2022-10-01T11:14:48.097Z,393.00
2022-10-01T11:15:43.287Z,398.00
2022-10-01T11:16:38.249Z,392.00
2022-10-01T11:17:33.323Z,392.00
2022-10-01T11:18:28.391Z,391.00
2022-10-01T11:19:23.612Z,390.00
2022-10-01T11:20:20.879Z,399.00
2022-10-01T11:21:13.659Z,392.00
2022-10-01T11:22:08.712Z,390.00
2022-10-01T11:23:03.830Z,393.00
2022-10-01T11:23:58.723Z,392.00
2022-10-01T11:24:53.847Z,399.00
2022-10-01T11:25:49.282Z,398.00
2022-10-01T11:26:44.558Z,404.00
2022-10-01T11:27:39.964Z,400.00
2022-10-01T11:28:35.290Z,395.00
2022-10-01T11:29:30.900Z,400.00
2022-10-01T11:30:26.620Z,402.00